Time;durP1;ratioP1;P1;durP2;ratioP2;P2;SDS_P1;SDS_P2;PMS_P1;PMS_P2;Temp;Humidity;BMP_temperature;BMP_pressure;BME280_temperature;BME280_humidity;BME280_pressure;Samples;Min_cycle;Max_cycle;Signal;HPM_P1;HPM_P2
2023/04/29 00:00:31;;;;;;;0.70;0.70;;;12.20;99.90;;;;;;4994529;28;20178;-71
2023/04/29 00:02:56;;;;;;;0.40;0.40;;;12.30;99.90;;;;;;4994584;28;20164;-70
2023/04/29 00:05:22;;;;;;;0.73;0.73;;;12.30;99.90;;;;;;4994321;28;20238;-71
2023/04/29 00:07:48;;;;;;;0.67;0.67;;;12.30;99.90;;;;;;4994172;28;20172;-70
2023/04/29 00:10:13;;;;;;;0.40;0.40;;;12.30;99.90;;;;;;4994307;28;20246;-71
2023/04/29 00:12:40;;;;;;;1.30;1.20;;;12.30;99.90;;;;;;4994340;28;20164;-70
2023/04/29 00:15:07;;;;;;;2.50;2.10;;;12.30;99.90;;;;;;4994151;28;20208;-71
2023/04/29 00:17:33;;;;;;;2.10;0.60;;;12.30;99.90;;;;;;4994127;28;20812;-71
2023/04/29 00:19:59;;;;;;;0.30;0.30;;;12.30;99.90;;;;;;4994130;28;20461;-71
2023/04/29 00:22:24;;;;;;;0.37;0.37;;;12.30;99.90;;;;;;4994131;28;20766;-70
2023/04/29 00:24:51;;;;;;;1.20;1.20;;;12.20;99.90;;;;;;4992863;28;20204;-70
2023/04/29 00:27:17;;;;;;;0.80;0.80;;;12.10;99.90;;;;;;4993962;28;20574;-71
2023/04/29 00:29:43;;;;;;;0.50;0.50;;;12.10;99.90;;;;;;4993996;28;20412;-71
2023/04/29 00:32:09;;;;;;;0.40;0.40;;;12.10;99.90;;;;;;4994140;28;20259;-71
2023/04/29 00:34:34;;;;;;;0.57;0.57;;;12.10;99.90;;;;;;4993991;28;20204;-71
2023/04/29 00:37:00;;;;;;;0.50;0.43;;;12.20;99.90;;;;;;4993964;28;20503;-71
2023/04/29 00:39:26;;;;;;;0.30;0.30;;;12.20;99.90;;;;;;4994041;28;20212;-71
2023/04/29 00:41:52;;;;;;;1.63;0.60;;;12.10;99.90;;;;;;4994140;28;20171;-71
2023/04/29 00:44:17;;;;;;;0.37;0.37;;;12.00;99.90;;;;;;4993877;28;20188;-70
2023/04/29 00:46:43;;;;;;;1.00;1.00;;;12.00;99.90;;;;;;4994184;28;20433;-71
2023/04/29 00:49:12;;;;;;;0.77;0.77;;;12.00;99.90;;;;;;4994459;28;20176;-70
2023/04/29 00:51:40;;;;;;;0.67;0.43;;;12.00;99.90;;;;;;4993730;28;20433;-70
2023/04/29 00:54:06;;;;;;;1.73;0.73;;;12.00;99.90;;;;;;4993938;28;20553;-70
2023/04/29 00:56:35;;;;;;;1.17;1.17;;;12.10;99.90;;;;;;4993887;28;20403;-71
2023/04/29 00:59:02;;;;;;;0.47;0.47;;;12.10;99.90;;;;;;4993668;28;20410;-71
2023/04/29 01:01:29;;;;;;;0.57;0.57;;;12.10;99.90;;;;;;4993930;28;20454;-70
2023/04/29 01:03:56;;;;;;;0.40;0.40;;;12.10;99.90;;;;;;4993648;28;20440;-71
2023/04/29 01:06:53;;;;;;;0.30;0.30;;;12.00;99.90;;;;;;4993764;28;20549;-71
2023/04/29 01:09:30;;;;;;;0.83;0.83;;;11.90;99.90;;;;;;4993860;28;20493;-70
2023/04/29 01:12:09;;;;;;;0.60;0.60;;;11.90;99.90;;;;;;4993506;28;20403;-71
2023/04/29 01:14:38;;;;;;;0.40;0.40;;;11.90;99.90;;;;;;4993642;28;20462;-71
2023/04/29 01:17:08;;;;;;;0.40;0.40;;;11.90;99.90;;;;;;4993374;28;20407;-70
2023/04/29 01:19:49;;;;;;;0.40;0.40;;;11.90;99.90;;;;;;4993770;28;20446;-71
2023/04/29 01:22:17;;;;;;;0.40;0.40;;;11.80;99.90;;;;;;4993682;28;20959;-71
2023/04/29 01:24:43;;;;;;;0.30;0.30;;;11.80;99.90;;;;;;4993464;28;21005;-70
2023/04/29 01:27:40;;;;;;;0.50;0.50;;;11.80;99.90;;;;;;4993573;28;20403;-70
2023/04/29 01:30:13;;;;;;;0.50;0.50;;;11.80;99.90;;;;;;4960780;28;20574;-71
2023/04/29 01:32:49;;;;;;;0.83;0.67;;;11.90;99.90;;;;;;4993730;28;20806;-71
2023/04/29 01:35:46;;;;;;;0.83;0.70;;;11.90;99.90;;;;;;4993486;28;20469;-70
2023/04/29 01:38:28;;;;;;;0.83;0.83;;;11.90;99.90;;;;;;4993581;28;20404;-70
2023/04/29 01:41:14;;;;;;;0.40;0.40;;;12.00;99.90;;;;;;4995220;28;20427;-71
2023/04/29 01:43:41;;;;;;;1.47;0.97;;;11.80;99.90;;;;;;4996872;28;20734;-70
2023/04/29 01:46:15;;;;;;;0.40;0.40;;;12.00;99.90;;;;;;4996895;28;20955;-71
2023/04/29 01:48:41;;;;;;;0.90;0.90;;;12.00;99.90;;;;;;4996751;28;20395;-71
2023/04/29 01:51:06;;;;;;;0.60;0.60;;;11.90;99.90;;;;;;4996988;28;20410;-71
2023/04/29 01:53:32;;;;;;;1.20;0.53;;;11.90;99.90;;;;;;4996518;28;20984;-71
2023/04/29 01:55:58;;;;;;;0.70;0.40;;;11.90;99.90;;;;;;4996644;28;20218;-70
2023/04/29 01:58:23;;;;;;;0.40;0.40;;;11.80;99.90;;;;;;4996550;28;20172;-71
2023/04/29 02:00:49;;;;;;;0.50;0.50;;;11.80;99.90;;;;;;4996707;28;20179;-70
2023/04/29 02:03:16;;;;;;;0.60;0.60;;;11.80;99.90;;;;;;4996728;28;20168;-70
2023/04/29 02:05:42;;;;;;;0.40;0.40;;;11.80;99.90;;;;;;4996552;28;20192;-71
2023/04/29 02:08:07;;;;;;;0.80;0.80;;;11.80;99.90;;;;;;4996353;28;20926;-70
2023/04/29 02:10:33;;;;;;;0.57;0.57;;;11.80;99.90;;;;;;4996715;28;20172;-71
2023/04/29 02:13:00;;;;;;;1.50;1.40;;;11.70;99.90;;;;;;4996376;28;20181;-71
2023/04/29 02:15:26;;;;;;;0.80;0.80;;;11.60;99.90;;;;;;4996397;28;20555;-70
2023/04/29 02:17:53;;;;;;;0.50;0.50;;;11.50;99.90;;;;;;4996214;28;20407;-71
2023/04/29 02:20:18;;;;;;;0.50;0.50;;;11.50;99.90;;;;;;4996334;28;20766;-71
2023/04/29 02:22:44;;;;;;;0.50;0.50;;;11.50;99.90;;;;;;4996222;28;20403;-70
2023/04/29 02:25:10;;;;;;;0.40;0.40;;;11.50;99.90;;;;;;4996106;28;20675;-70
2023/04/29 02:27:36;;;;;;;0.30;0.30;;;11.50;99.90;;;;;;4996040;28;20168;-71
2023/04/29 02:30:03;;;;;;;0.50;0.50;;;11.60;99.90;;;;;;4996357;28;20466;-71
2023/04/29 02:32:29;;;;;;;0.30;0.30;;;11.70;99.90;;;;;;4996180;28;20169;-71
2023/04/29 02:34:55;;;;;;;0.50;0.50;;;11.70;99.90;;;;;;4995937;28;20465;-71
2023/04/29 02:37:21;;;;;;;0.30;0.30;;;11.70;99.90;;;;;;4995879;28;20404;-71
2023/04/29 02:39:47;;;;;;;0.30;0.30;;;11.70;99.90;;;;;;4994651;28;20930;-70
2023/04/29 02:42:12;;;;;;;0.30;0.30;;;11.70;99.90;;;;;;4995886;28;20168;-70
2023/04/29 02:44:38;;;;;;;0.87;0.80;;;11.70;99.90;;;;;;4995970;28;20716;-70
2023/04/29 02:47:04;;;;;;;0.70;0.70;;;11.70;99.90;;;;;;4995685;28;20169;-71
2023/04/29 02:49:30;;;;;;;1.13;1.13;;;11.80;99.90;;;;;;4995829;28;20494;-71
2023/04/29 02:51:57;;;;;;;0.43;0.43;;;11.80;99.90;;;;;;4994586;28;20839;-71
2023/04/29 02:54:23;;;;;;;0.40;0.40;;;11.80;99.90;;;;;;4995757;28;20266;-71
2023/04/29 02:56:48;;;;;;;0.37;0.37;;;11.70;99.90;;;;;;4995401;28;20399;-71
2023/04/29 02:59:14;;;;;;;0.67;0.47;;;11.70;99.90;;;;;;4995580;28;20411;-71
2023/04/29 03:01:40;;;;;;;0.40;0.40;;;11.80;99.90;;;;;;4995757;28;20188;-71
2023/04/29 03:04:06;;;;;;;1.43;1.33;;;11.70;99.90;;;;;;4995541;28;20439;-71
2023/04/29 03:06:32;;;;;;;0.50;0.50;;;11.70;99.90;;;;;;4995528;28;20906;-70
2023/04/29 03:08:57;;;;;;;0.50;0.50;;;11.60;99.90;;;;;;4995195;28;20173;-71
2023/04/29 03:11:23;;;;;;;2.47;1.47;;;11.60;99.90;;;;;;4995352;28;20498;-70
2023/04/29 03:13:49;;;;;;;0.40;0.40;;;11.60;99.90;;;;;;4995189;28;20196;-71
2023/04/29 03:16:15;;;;;;;0.60;0.60;;;11.50;99.90;;;;;;4995314;28;20400;-71
2023/04/29 03:18:42;;;;;;;0.60;0.60;;;11.40;99.90;;;;;;4994894;28;20422;-70
2023/04/29 03:21:07;;;;;;;0.93;0.93;;;11.30;99.90;;;;;;4995196;28;20422;-70
2023/04/29 03:23:33;;;;;;;1.43;1.43;;;11.20;99.90;;;;;;4995248;28;20954;-70
2023/04/29 03:26:00;;;;;;;0.50;0.50;;;11.10;99.90;;;;;;4994952;28;20283;-71
2023/04/29 03:28:26;;;;;;;0.50;0.50;;;11.20;99.90;;;;;;4994795;28;20582;-71
2023/04/29 03:30:52;;;;;;;1.57;1.57;;;11.10;99.90;;;;;;4995118;28;20495;-71
2023/04/29 03:33:17;;;;;;;0.50;0.50;;;11.10;99.90;;;;;;4995485;28;20522;-70
2023/04/29 03:35:44;;;;;;;0.30;0.30;;;10.90;99.90;;;;;;4994794;28;20200;-71
2023/04/29 03:38:10;;;;;;;0.40;0.40;;;10.90;99.90;;;;;;4994758;28;20183;-70
2023/04/29 03:40:36;;;;;;;0.70;0.70;;;10.80;99.90;;;;;;4994983;28;20764;-70
2023/04/29 03:43:02;;;;;;;0.30;0.30;;;10.80;99.90;;;;;;4994818;28;20514;-70
2023/04/29 03:45:28;;;;;;;0.50;0.50;;;10.80;99.90;;;;;;4994828;28;20514;-70
2023/04/29 03:47:54;;;;;;;0.80;0.67;;;10.80;99.90;;;;;;4994476;28;20238;-70
2023/04/29 03:50:19;;;;;;;0.40;0.40;;;10.80;99.90;;;;;;4994715;28;20403;-70
2023/04/29 03:52:45;;;;;;;0.60;0.60;;;10.70;99.90;;;;;;4994570;28;20699;-71
2023/04/29 03:55:11;;;;;;;1.23;1.17;;;10.60;99.90;;;;;;4994432;28;20676;-71
2023/04/29 03:57:37;;;;;;;1.90;1.10;;;10.60;99.90;;;;;;4994365;28;20449;-71
2023/04/29 04:00:03;;;;;;;0.30;0.30;;;10.50;99.90;;;;;;4994604;28;20408;-70
2023/04/29 04:02:29;;;;;;;0.30;0.30;;;10.50;99.90;;;;;;4994285;28;20176;-71
2023/04/29 04:04:55;;;;;;;0.70;0.70;;;10.50;99.90;;;;;;4994085;28;20683;-71
2023/04/29 04:07:20;;;;;;;0.40;0.40;;;10.50;99.90;;;;;;4994244;28;20222;-71
2023/04/29 04:09:46;;;;;;;0.40;0.40;;;10.70;99.90;;;;;;4994523;28;20172;-71
2023/04/29 04:12:11;;;;;;;0.43;0.43;;;10.60;99.90;;;;;;4994454;28;20172;-71
2023/04/29 04:14:37;;;;;;;0.30;0.30;;;10.50;99.90;;;;;;4994033;28;20282;-71
2023/04/29 04:17:03;;;;;;;0.60;0.60;;;10.50;99.90;;;;;;4993990;28;20218;-71
2023/04/29 04:19:30;;;;;;;0.40;0.40;;;10.50;99.90;;;;;;4994309;28;20196;-70
2023/04/29 04:21:56;;;;;;;0.63;0.45;;;10.40;99.90;;;;;;4994343;28;20168;-71
2023/04/29 04:24:22;;;;;;;0.40;0.40;;;10.40;99.90;;;;;;4994114;28;20731;-71
2023/04/29 04:26:47;;;;;;;0.40;0.40;;;10.40;99.90;;;;;;4994038;28;20187;-71
2023/04/29 04:29:13;;;;;;;0.50;0.50;;;10.30;99.90;;;;;;4993943;28;20415;-71
2023/04/29 04:31:39;;;;;;;0.83;0.83;;;10.30;99.90;;;;;;4994421;28;20168;-70
2023/04/29 04:34:05;;;;;;;0.40;0.40;;;10.20;99.90;;;;;;4993894;28;20739;-71
2023/04/29 04:36:31;;;;;;;0.60;0.60;;;10.30;99.90;;;;;;4993935;28;20172;-70
2023/04/29 04:38:57;;;;;;;0.90;0.55;;;10.30;99.90;;;;;;4993890;28;20168;-70
2023/04/29 04:41:23;;;;;;;0.80;0.80;;;10.30;99.90;;;;;;4993905;28;20179;-71
2023/04/29 04:43:48;;;;;;;0.40;0.40;;;10.20;99.90;;;;;;4994022;28;20458;-70
2023/04/29 04:46:15;;;;;;;0.40;0.40;;;10.20;99.90;;;;;;4992639;28;20212;-70
2023/04/29 04:48:41;;;;;;;0.98;0.98;;;10.20;99.90;;;;;;4993691;28;20419;-70
2023/04/29 04:51:09;;;;;;;0.60;0.60;;;10.20;99.90;;;;;;4993901;28;20231;-70
2023/04/29 04:53:35;;;;;;;0.60;0.60;;;10.20;99.90;;;;;;4993738;28;20461;-70
2023/04/29 04:56:01;;;;;;;0.30;0.30;;;10.20;99.90;;;;;;4993794;28;20251;-70
2023/04/29 04:58:27;;;;;;;0.40;0.40;;;10.30;99.90;;;;;;4993548;28;20172;-70
2023/04/29 05:00:52;;;;;;;0.70;0.60;;;10.30;99.90;;;;;;4993703;28;20461;-70
2023/04/29 05:03:18;;;;;;;0.47;0.47;;;10.40;99.90;;;;;;4993958;28;20509;-71
2023/04/29 05:05:43;;;;;;;2.77;0.93;;;10.50;99.90;;;;;;4993623;28;20195;-71
2023/04/29 05:08:09;;;;;;;0.53;0.53;;;10.50;99.90;;;;;;4993551;28;20164;-71
2023/04/29 05:10:36;;;;;;;0.60;0.60;;;10.70;99.90;;;;;;4993756;28;20254;-71
2023/04/29 05:13:01;;;;;;;0.60;0.60;;;11.60;99.90;;;;;;4993646;28;20637;-71
2023/04/29 05:15:27;;;;;;;0.80;0.80;;;12.80;99.90;;;;;;4994827;28;20430;-70
2023/04/29 05:17:52;;;;;;;0.30;0.30;;;14.20;99.90;;;;;;4997203;28;20187;-71
2023/04/29 05:20:19;;;;;;;0.50;0.50;;;15.50;99.90;;;;;;4997426;28;20201;-71
2023/04/29 05:22:45;;;;;;;0.90;0.90;;;16.60;99.90;;;;;;4997446;28;20173;-71
2023/04/29 05:25:11;;;;;;;0.60;0.60;;;17.60;99.90;;;;;;4997380;28;20438;-71
2023/04/29 05:27:38;;;;;;;0.83;0.83;;;18.50;99.90;;;;;;4997152;28;20196;-71
2023/04/29 05:30:04;;;;;;;0.43;0.43;;;19.20;99.90;;;;;;4997417;28;20416;-71
2023/04/29 05:32:29;;;;;;;1.07;0.60;;;20.00;99.90;;;;;;4997391;28;20493;-71
2023/04/29 05:34:55;;;;;;;0.50;0.50;;;20.90;98.00;;;;;;4996922;28;20436;-72
2023/04/29 05:37:21;;;;;;;0.60;0.60;;;21.80;93.20;;;;;;4997151;28;20164;-71
2023/04/29 05:39:46;;;;;;;0.50;0.50;;;22.60;85.90;;;;;;4997165;28;20370;-72
2023/04/29 05:42:12;;;;;;;0.90;0.50;;;23.50;83.30;;;;;;4996902;28;20164;-72
2023/04/29 05:44:38;;;;;;;0.63;0.63;;;24.20;80.00;;;;;;4996858;28;20195;-72
2023/04/29 05:47:04;;;;;;;0.60;0.60;;;24.90;76.10;;;;;;4996928;28;20164;-72
2023/04/29 05:49:30;;;;;;;0.90;0.80;;;25.50;71.30;;;;;;4996909;28;20434;-72
2023/04/29 05:51:56;;;;;;;0.70;0.60;;;25.90;67.40;;;;;;4996948;28;20191;-72
2023/04/29 05:54:21;;;;;;;0.43;0.43;;;26.10;64.10;;;;;;4996825;28;20715;-71
2023/04/29 05:56:47;;;;;;;0.40;0.40;;;25.90;63.70;;;;;;4995423;28;20929;-72
2023/04/29 05:59:12;;;;;;;0.77;0.67;;;25.60;62.30;;;;;;4996653;28;20621;-72
2023/04/29 06:01:38;;;;;;;0.40;0.40;;;24.90;65.10;;;;;;4996603;28;20590;-71
2023/04/29 06:04:04;;;;;;;0.47;0.47;;;23.90;65.90;;;;;;4996471;28;20223;-72
2023/04/29 06:06:30;;;;;;;0.37;0.37;;;23.70;68.90;;;;;;4996692;28;20188;-71
2023/04/29 06:08:56;;;;;;;0.70;0.50;;;24.10;66.40;;;;;;4995006;28;20443;-71
2023/04/29 06:11:22;;;;;;;0.43;0.43;;;24.40;63.60;;;;;;4996622;28;20179;-72
2023/04/29 06:13:47;;;;;;;0.60;0.60;;;25.20;75.60;;;;;;4996275;28;20208;-72
2023/04/29 06:16:13;;;;;;;0.50;0.50;;;25.30;62.80;;;;;;4996411;28;20176;-72
2023/04/29 06:18:38;;;;;;;0.50;0.40;;;25.30;63.80;;;;;;4996071;28;20203;-71
2023/04/29 06:21:04;;;;;;;1.00;0.70;;;24.80;63.20;;;;;;4996229;28;20223;-72
2023/04/29 06:23:31;;;;;;;0.40;0.40;;;24.10;65.70;;;;;;4996412;28;20168;-72
2023/04/29 06:25:57;;;;;;;0.90;0.70;;;23.30;67.40;;;;;;4995879;28;20219;-71
2023/04/29 06:28:22;;;;;;;0.40;0.40;;;22.70;70.70;;;;;;4995991;28;20445;-72
2023/04/29 06:30:49;;;;;;;0.50;0.40;;;22.60;69.80;;;;;;4996092;28;20180;-72
2023/04/29 06:33:14;;;;;;;0.40;0.40;;;22.80;70.20;;;;;;4996004;28;20164;-71
2023/04/29 06:35:40;;;;;;;0.50;0.40;;;22.70;70.70;;;;;;4995888;28;20511;-71
2023/04/29 06:38:09;;;;;;;0.30;0.30;;;22.40;70.60;;;;;;4995902;28;20168;-71
2023/04/29 06:40:35;;;;;;;0.70;0.40;;;22.00;72.10;;;;;;4994581;28;20403;-71
2023/04/29 06:43:04;;;;;;;1.67;1.00;;;21.80;72.50;;;;;;4995827;28;20862;-71
2023/04/29 06:45:30;;;;;;;0.67;0.67;;;21.30;75.00;;;;;;4995719;28;20200;-71
2023/04/29 06:47:56;;;;;;;0.70;0.60;;;21.00;77.80;;;;;;4995688;28;20411;-71
2023/04/29 06:50:21;;;;;;;0.70;0.70;;;20.60;78.50;;;;;;4995883;28;20411;-71
2023/04/29 06:52:48;;;;;;;0.47;0.47;;;20.20;80.20;;;;;;4995911;28;20214;-71
2023/04/29 06:55:13;;;;;;;0.90;0.80;;;19.80;83.70;;;;;;4995471;28;20215;-72
2023/04/29 06:57:39;;;;;;;0.47;0.43;;;19.90;86.20;;;;;;4995454;28;20407;-71
2023/04/29 07:00:06;;;;;;;0.30;0.30;;;20.00;84.60;;;;;;4995635;28;20614;-71
2023/04/29 07:02:32;;;;;;;0.40;0.40;;;19.50;85.10;;;;;;4995676;28;20414;-71
2023/04/29 07:04:58;;;;;;;0.40;0.40;;;19.00;88.20;;;;;;4995495;28;20428;-71
2023/04/29 07:07:24;;;;;;;0.40;0.40;;;18.70;90.50;;;;;;4995247;28;20180;-71
2023/04/29 07:09:51;;;;;;;0.30;0.30;;;18.80;91.30;;;;;;4995197;28;20401;-71
2023/04/29 07:12:16;;;;;;;0.40;0.40;;;19.30;91.10;;;;;;4995528;28;20415;-71
2023/04/29 07:14:42;;;;;;;0.47;0.47;;;19.80;90.20;;;;;;4995044;28;20476;-71
2023/04/29 07:17:08;;;;;;;0.83;0.77;;;19.90;90.20;;;;;;4995334;28;20632;-71
2023/04/29 07:19:33;;;;;;;0.40;0.40;;;19.80;90.40;;;;;;4995233;28;20210;-71
2023/04/29 07:21:59;;;;;;;0.60;0.50;;;20.30;90.00;;;;;;4995276;28;20214;-71
2023/04/29 07:24:25;;;;;;;0.47;0.47;;;21.80;87.30;;;;;;4995069;28;20228;-72
2023/04/29 07:26:51;;;;;;;0.30;0.30;;;23.30;82.50;;;;;;4994874;28;20172;-72
2023/04/29 07:29:16;;;;;;;0.40;0.40;;;24.40;77.50;;;;;;4995179;28;20415;-72
2023/04/29 07:31:42;;;;;;;0.40;0.40;;;24.50;74.80;;;;;;4995069;28;20175;-72
2023/04/29 07:34:07;;;;;;;0.30;0.30;;;24.20;71.80;;;;;;4994793;28;20211;-72
2023/04/29 07:36:34;;;;;;;0.40;0.40;;;24.70;72.60;;;;;;4994912;28;20176;-72
2023/04/29 07:38:59;;;;;;;0.40;0.40;;;25.10;71.70;;;;;;4994227;28;20172;-72
2023/04/29 07:41:26;;;;;;;0.40;0.40;;;25.10;70.40;;;;;;4994702;28;20410;-71
2023/04/29 07:43:51;;;;;;;0.40;0.40;;;26.60;76.70;;;;;;4994718;28;20304;-72
2023/04/29 07:46:17;;;;;;;0.40;0.40;;;27.00;64.70;;;;;;4994715;28;20947;-72
2023/04/29 07:48:44;;;;;;;0.40;0.40;;;27.50;64.50;;;;;;4994530;28;20247;-72
2023/04/29 07:51:13;;;;;;;0.40;0.40;;;28.30;59.80;;;;;;4994769;28;20267;-72
2023/04/29 07:53:40;;;;;;;0.40;0.40;;;30.10;56.10;;;;;;4994264;28;20478;-72
2023/04/29 07:56:06;;;;;;;0.50;0.30;;;30.10;53.20;;;;;;4994484;28;20466;-72
2023/04/29 07:58:32;;;;;;;0.40;0.40;;;30.70;50.60;;;;;;4994308;28;20434;-72
2023/04/29 08:01:05;;;;;;;0.30;0.30;;;30.90;51.30;;;;;;4994573;28;20884;-72
2023/04/29 08:03:31;;;;;;;0.30;0.30;;;30.80;51.00;;;;;;4994739;28;20176;-72
2023/04/29 08:06:03;;;;;;;0.40;0.40;;;29.80;52.90;;;;;;4994219;28;20793;-72
2023/04/29 08:08:30;;;;;;;0.37;0.37;;;30.60;51.60;;;;;;4994258;28;20172;-72
2023/04/29 08:10:55;;;;;;;0.40;0.40;;;31.50;49.30;;;;;;4994268;28;20495;-72
2023/04/29 08:13:21;;;;;;;0.40;0.40;;;31.90;48.30;;;;;;4994259;28;20499;-72
2023/04/29 08:15:47;;;;;;;0.40;0.40;;;32.40;47.50;;;;;;4994197;28;20270;-73
2023/04/29 08:18:12;;;;;;;0.40;0.40;;;33.30;46.30;;;;;;4994269;28;20179;-72
2023/04/29 08:20:38;;;;;;;0.43;0.43;;;33.40;44.60;;;;;;4994264;28;20229;-72
2023/04/29 08:23:03;;;;;;;0.40;0.40;;;33.70;44.10;;;;;;4994121;28;20655;-72
2023/04/29 08:25:29;;;;;;;0.40;0.40;;;32.50;42.40;;;;;;4994018;28;20203;-72
2023/04/29 08:27:55;;;;;;;0.47;0.40;;;32.50;44.80;;;;;;4994026;28;20264;-72
2023/04/29 08:30:21;;;;;;;0.77;0.77;;;33.00;44.00;;;;;;4994186;28;20176;-72
2023/04/29 08:32:47;;;;;;;0.50;0.50;;;30.90;43.30;;;;;;4994170;28;20254;-72
2023/04/29 08:35:13;;;;;;;0.30;0.30;;;30.40;46.00;;;;;;4993748;28;20503;-72
2023/04/29 08:37:38;;;;;;;0.40;0.40;;;30.70;45.00;;;;;;4993716;28;20649;-72
2023/04/29 08:40:05;;;;;;;0.47;0.43;;;31.00;43.70;;;;;;4993931;28;20176;-72
2023/04/29 08:42:35;;;;;;;0.30;0.30;;;31.30;43.90;;;;;;4993863;28;20522;-72
2023/04/29 08:45:02;;;;;;;0.40;0.30;;;31.90;44.60;;;;;;4993832;28;20435;-73
2023/04/29 08:47:32;;;;;;;0.37;0.30;;;32.80;43.00;;;;;;4993548;28;20411;-72
2023/04/29 08:50:03;;;;;;;0.40;0.40;;;33.00;43.80;;;;;;4994267;28;20482;-71
2023/04/29 08:52:31;;;;;;;0.40;0.40;;;33.40;41.90;;;;;;4997998;28;20439;-73
2023/04/29 08:54:57;;;;;;;0.80;0.70;;;33.70;40.20;;;;;;4997896;28;20484;-70
2023/04/29 08:57:25;;;;;;;0.50;0.50;;;33.80;40.20;;;;;;4997611;28;20486;-70
2023/04/29 08:59:51;;;;;;;0.40;0.40;;;33.50;39.40;;;;;;4996518;28;20415;-70
2023/04/29 09:02:17;;;;;;;0.40;0.40;;;32.60;39.80;;;;;;4997828;28;20406;-71
2023/04/29 09:04:52;;;;;;;0.50;0.50;;;31.40;42.30;;;;;;4997363;28;20435;-71
2023/04/29 09:07:18;;;;;;;0.40;0.40;;;31.30;43.60;;;;;;4997712;28;20445;-70
2023/04/29 09:09:46;;;;;;;0.40;0.30;;;32.00;42.70;;;;;;4997468;28;20410;-71
2023/04/29 09:12:11;;;;;;;0.30;0.30;;;32.50;42.30;;;;;;4997588;28;20411;-71
2023/04/29 09:14:37;;;;;;;0.40;0.40;;;32.20;40.30;;;;;;4997455;28;20473;-71
2023/04/29 09:17:03;;;;;;;0.40;0.40;;;30.90;42.60;;;;;;4997592;28;20588;-70
2023/04/29 09:19:34;;;;;;;0.40;0.40;;;29.20;45.60;;;;;;4997469;28;20168;-70
2023/04/29 09:22:01;;;;;;;0.50;0.50;;;27.80;47.40;;;;;;4997399;28;20218;-70
2023/04/29 09:24:28;;;;;;;0.40;0.40;;;27.20;49.00;;;;;;4997262;28;20427;-70
2023/04/29 09:26:54;;;;;;;0.40;0.40;;;27.70;49.20;;;;;;4997126;28;20434;-70
2023/04/29 09:29:20;;;;;;;0.50;0.50;;;28.20;47.80;;;;;;4997172;28;20415;-70
2023/04/29 09:31:46;;;;;;;0.40;0.40;;;27.50;47.10;;;;;;4997180;28;20255;-70
2023/04/29 09:34:13;;;;;;;0.50;0.50;;;27.10;45.30;;;;;;4996985;28;20573;-70
2023/04/29 09:36:49;;;;;;;0.40;0.40;;;26.20;47.70;;;;;;4997137;28;20411;-70
2023/04/29 09:39:22;;;;;;;0.30;0.30;;;25.60;49.70;;;;;;4997294;28;20890;-70
2023/04/29 09:41:54;;;;;;;0.40;0.40;;;25.20;49.00;;;;;;4997137;28;20500;-70
2023/04/29 09:44:27;;;;;;;0.30;0.30;;;25.00;50.60;;;;;;4996861;28;20438;-70
2023/04/29 09:47:01;;;;;;;0.30;0.30;;;24.60;52.30;;;;;;4997053;28;20419;-70
2023/04/29 09:49:39;;;;;;;0.40;0.40;;;24.70;49.70;;;;;;4996850;28;20733;-70
2023/04/29 09:52:13;;;;;;;0.40;0.40;;;24.70;50.80;;;;;;4996842;28;20518;-70
2023/04/29 09:54:41;;;;;;;0.40;0.40;;;25.60;50.00;;;;;;4996860;28;20978;-70
2023/04/29 09:57:08;;;;;;;0.30;0.30;;;26.20;48.80;;;;;;4996566;28;20918;-70
2023/04/29 09:59:36;;;;;;;0.50;0.50;;;26.20;47.00;;;;;;4996749;28;20414;-70
2023/04/29 10:02:09;;;;;;;0.40;0.40;;;25.60;47.60;;;;;;4996246;28;20761;-70
2023/04/29 10:04:39;;;;;;;0.50;0.50;;;24.50;48.00;;;;;;4996617;28;20898;-70
2023/04/29 10:07:05;;;;;;;0.73;0.73;;;24.70;49.50;;;;;;4996222;28;20979;-70
2023/04/29 10:09:31;;;;;;;0.50;0.40;;;25.40;50.20;;;;;;4996594;28;20745;-70
2023/04/29 10:11:56;;;;;;;1.80;0.57;;;25.90;47.90;;;;;;4996501;28;20478;-70
2023/04/29 10:14:24;;;;;;;0.30;0.30;;;25.80;48.30;;;;;;4996398;28;20254;-70
2023/04/29 10:17:05;;;;;;;0.57;0.57;;;25.70;48.30;;;;;;4996248;28;20176;-70
2023/04/29 10:19:38;;;;;;;0.40;0.40;;;25.80;47.40;;;;;;4996741;28;20494;-70
2023/04/29 10:22:08;;;;;;;0.40;0.40;;;26.10;46.50;;;;;;4996537;28;20806;-70
2023/04/29 10:24:38;;;;;;;0.40;0.40;;;26.50;46.30;;;;;;4996253;28;20500;-70
2023/04/29 10:27:11;;;;;;;0.30;0.30;;;25.90;46.00;;;;;;4996051;28;20730;-70
2023/04/29 10:29:38;;;;;;;0.30;0.30;;;25.50;47.30;;;;;;4996007;28;20458;-70
2023/04/29 10:32:08;;;;;;;0.50;0.50;;;25.50;46.50;;;;;;4996419;28;20422;-70
2023/04/29 10:34:37;;;;;;;0.60;0.50;;;25.10;47.30;;;;;;4996373;28;20509;-70
2023/04/29 10:37:04;;;;;;;0.40;0.40;;;25.30;50.10;;;;;;4995870;28;20415;-70
2023/04/29 10:39:49;;;;;;;0.30;0.30;;;25.40;49.30;;;;;;4996220;28;20407;-70
2023/04/29 10:42:42;;;;;;;0.40;0.40;;;25.70;47.90;;;;;;4995999;28;20439;-70
2023/04/29 10:45:21;;;;;;;0.40;0.40;;;26.10;48.00;;;;;;4996015;28;20432;-70
2023/04/29 10:48:01;;;;;;;0.50;0.40;;;25.70;47.30;;;;;;4995575;28;20386;-70
2023/04/29 10:50:47;;;;;;;0.30;0.30;;;25.40;48.40;;;;;;4995836;28;20410;-70
2023/04/29 10:53:21;;;;;;;0.40;0.40;;;24.70;48.50;;;;;;4985170;28;20433;-70
2023/04/29 10:55:48;;;;;;;0.40;0.40;;;23.70;48.60;;;;;;4995709;28;20772;-70
2023/04/29 10:58:32;;;;;;;0.50;0.50;;;23.50;50.20;;;;;;4995458;28;20383;-70
2023/04/29 11:00:58;;;;;;;0.40;0.40;;;23.40;51.10;;;;;;4995645;28;20942;-70
2023/04/29 11:03:58;;;;;;;0.40;0.40;;;23.40;51.30;;;;;;4995656;28;20490;-70
2023/04/29 11:06:33;;;;;;;0.37;0.37;;;23.30;52.10;;;;;;4996067;28;20488;-70
2023/04/29 11:09:06;;;;;;;0.40;0.40;;;23.40;50.80;;;;;;4995415;28;20441;-70
2023/04/29 11:11:59;;;;;;;0.40;0.40;;;23.20;49.70;;;;;;4995565;28;20397;-70
2023/04/29 11:14:35;;;;;;;0.60;0.60;;;23.10;51.30;;;;;;4994686;28;20459;-70
2023/04/29 11:17:03;;;;;;;0.40;0.40;;;23.00;51.00;;;;;;4995075;28;20442;-70
2023/04/29 11:19:33;;;;;;;0.50;0.50;;;23.00;51.20;;;;;;4995230;28;20415;-70
2023/04/29 11:22:10;;;;;;;0.40;0.40;;;23.20;51.10;;;;;;4995195;28;20410;-70
2023/04/29 11:24:47;;;;;;;0.40;0.40;;;23.50;50.20;;;;;;4995225;28;20557;-70
2023/04/29 11:27:14;;;;;;;0.30;0.30;;;23.70;50.90;;;;;;4995121;28;20409;-70
2023/04/29 11:29:40;;;;;;;0.30;0.30;;;23.60;48.60;;;;;;4995308;28;20497;-70
2023/04/29 11:32:06;;;;;;;0.40;0.40;;;23.30;50.40;;;;;;4993983;28;20751;-70
2023/04/29 11:34:32;;;;;;;0.40;0.40;;;23.20;50.70;;;;;;4994728;28;20465;-69
2023/04/29 11:36:59;;;;;;;0.60;0.50;;;23.10;51.80;;;;;;4994693;28;20962;-70
2023/04/29 11:39:26;;;;;;;0.30;0.30;;;22.70;50.60;;;;;;4995076;28;20568;-70
2023/04/29 11:41:51;;;;;;;0.30;0.30;;;22.50;51.60;;;;;;4994904;28;20395;-70
2023/04/29 11:44:23;;;;;;;0.50;0.50;;;22.40;52.90;;;;;;4994830;28;20465;-70
2023/04/29 11:46:49;;;;;;;0.53;0.53;;;22.20;52.20;;;;;;4994555;28;20171;-70
2023/04/29 11:49:15;;;;;;;0.50;0.50;;;22.00;54.60;;;;;;4994653;28;20404;-70
2023/04/29 11:51:41;;;;;;;0.30;0.30;;;21.90;52.10;;;;;;4994511;28;20201;-70
2023/04/29 11:54:06;;;;;;;0.40;0.40;;;21.80;52.20;;;;;;4994563;28;20306;-70
2023/04/29 11:56:32;;;;;;;0.57;0.53;;;21.60;53.30;;;;;;4994653;28;20428;-70
2023/04/29 11:59:00;;;;;;;0.30;0.30;;;21.50;54.70;;;;;;4994391;28;20656;-70
2023/04/29 12:01:26;;;;;;;0.47;0.47;;;21.50;54.90;;;;;;4994641;28;20721;-70
2023/04/29 12:03:57;;;;;;;0.40;0.40;;;21.50;68.20;;;;;;4993089;28;20920;-70
2023/04/29 12:06:27;;;;;;;0.40;0.40;;;21.30;54.50;;;;;;4995212;28;20880;-70
2023/04/29 12:08:52;;;;;;;0.30;0.30;;;21.20;54.70;;;;;;4994142;28;20429;-70
2023/04/29 12:11:19;;;;;;;0.40;0.40;;;21.20;56.20;;;;;;4994498;28;20404;-70
2023/04/29 12:13:45;;;;;;;0.47;0.47;;;21.60;70.40;;;;;;4994303;28;20193;-70
2023/04/29 12:16:11;;;;;;;0.33;0.33;;;21.50;55.10;;;;;;4994456;28;20784;-70
2023/04/29 12:18:37;;;;;;;0.40;0.40;;;21.60;54.50;;;;;;4994009;28;20198;-70
2023/04/29 12:21:03;;;;;;;0.40;0.40;;;21.80;54.80;;;;;;4994101;28;20411;-70
2023/04/29 12:23:29;;;;;;;0.50;0.50;;;21.90;54.00;;;;;;4994207;28;20406;-70
2023/04/29 12:25:57;;;;;;;0.40;0.40;;;21.80;53.50;;;;;;4993865;28;20236;-70
2023/04/29 12:28:24;;;;;;;0.30;0.30;;;21.50;52.60;;;;;;4993827;28;20426;-70
2023/04/29 12:30:55;;;;;;;0.60;0.43;;;21.30;53.70;;;;;;4994020;28;20396;-70
2023/04/29 12:33:21;;;;;;;0.60;0.60;;;21.40;55.40;;;;;;4994184;28;20496;-70
2023/04/29 12:35:49;;;;;;;0.50;0.50;;;21.40;55.00;;;;;;4993843;28;20585;-70
2023/04/29 12:38:27;;;;;;;0.53;0.50;;;21.40;54.20;;;;;;4993860;28;20413;-70
2023/04/29 12:40:57;;;;;;;0.30;0.30;;;21.50;54.30;;;;;;4994139;28;20407;-69
2023/04/29 12:43:30;;;;;;;0.47;0.47;;;21.50;54.10;;;;;;4994131;28;20451;-70
2023/04/29 12:46:03;;;;;;;0.37;0.37;;;21.60;53.40;;;;;;4993781;28;20804;-70
2023/04/29 12:48:33;;;;;;;0.50;0.50;;;21.60;53.20;;;;;;4993841;28;20420;-72
2023/04/29 12:51:00;;;;;;;0.77;0.77;;;21.20;53.50;;;;;;4993962;28;20415;-72